createdAt,value
2023-08-11T00:09:20.279Z,96.55
2023-08-11T00:19:22.016Z,93.23
2023-08-11T00:29:25.934Z,90.84
2023-08-11T00:39:27.690Z,91.37
2023-08-11T00:49:29.602Z,93.32
2023-08-11T00:59:31.318Z,94.58
2023-08-11T01:09:49.423Z,97.01
2023-08-11T01:19:51.222Z,100.00
2023-08-11T01:29:53.010Z,100.00
2023-08-11T01:39:56.010Z,100.00
2023-08-11T01:49:58.217Z,100.00
2023-08-11T02:00:01.263Z,100.00
2023-08-11T02:10:03.897Z,100.00
2023-08-11T02:20:19.198Z,100.00
2023-08-11T02:30:23.572Z,100.00
2023-08-11T02:40:25.999Z,100.00
2023-08-11T02:50:27.767Z,100.00
2023-08-11T03:00:30.038Z,100.00
2023-08-11T03:10:39.908Z,100.00
2023-08-11T03:21:00.479Z,100.00
2023-08-11T03:31:09.282Z,100.00
2023-08-11T03:41:11.018Z,100.00
2023-08-11T03:51:12.772Z,100.00
2023-08-11T04:01:14.652Z,100.00
2023-08-11T04:11:16.496Z,100.00
2023-08-11T04:21:21.043Z,100.00
2023-08-11T04:31:22.804Z,100.00
2023-08-11T04:41:24.459Z,100.00
2023-08-11T04:51:26.125Z,100.00
2023-08-11T05:01:27.804Z,100.00
2023-08-11T05:11:31.511Z,100.00
2023-08-11T05:21:34.372Z,100.00
2023-08-11T05:31:36.146Z,100.00
2023-08-11T05:41:39.870Z,100.00
2023-08-11T05:51:44.121Z,100.00
2023-08-11T06:01:50.077Z,100.00
2023-08-11T06:22:08.072Z,100.00
2023-08-11T06:32:11.690Z,96.21
2023-08-11T06:42:13.427Z,93.99
2023-08-11T06:52:15.139Z,91.81
2023-08-11T07:02:16.762Z,87.32
2023-08-11T07:12:18.434Z,82.91
2023-08-11T07:22:20.068Z,75.99
2023-08-11T07:32:21.792Z,72.91
2023-08-11T07:42:23.759Z,71.11
2023-08-11T07:52:25.562Z,64.42
2023-08-11T08:02:27.686Z,63.35
2023-08-11T08:12:29.381Z,59.29
2023-08-11T08:22:31.260Z,59.13
2023-08-11T08:32:34.490Z,58.59
2023-08-11T08:42:38.122Z,55.90
2023-08-11T08:52:42.872Z,52.67
2023-08-11T09:02:46.990Z,51.86
2023-08-11T09:12:50.437Z,48.31
2023-08-11T09:22:52.307Z,39.94
2023-08-11T09:32:54.135Z,32.75
2023-08-11T09:42:57.558Z,28.41
2023-08-11T09:53:01.689Z,26.24
2023-08-11T10:03:08.167Z,24.57
2023-08-11T10:13:16.531Z,22.24
2023-08-11T10:23:22.638Z,21.63
2023-08-11T10:33:24.340Z,19.42
2023-08-11T10:43:36.154Z,27.60
2023-08-11T10:53:40.950Z,19.09
2023-08-11T11:03:43.429Z,19.64
2023-08-11T11:13:45.527Z,17.13
2023-08-11T11:23:52.598Z,15.98
2023-08-11T11:33:55.095Z,14.68
2023-08-11T11:43:58.432Z,12.28
2023-08-11T11:54:00.311Z,12.19
2023-08-11T12:04:05.907Z,12.57
2023-08-11T12:14:09.426Z,12.03
2023-08-11T12:24:15.899Z,15.58
2023-08-11T12:34:17.774Z,14.23
2023-08-11T12:44:20.440Z,13.09
2023-08-11T12:54:22.086Z,11.65
2023-08-11T13:04:27.256Z,11.10
2023-08-11T13:14:28.975Z,13.95
2023-08-11T13:24:37.404Z,15.96
2023-08-11T13:34:39.115Z,14.15
2023-08-11T13:44:40.850Z,13.71
2023-08-11T13:55:03.083Z,13.66
2023-08-11T14:05:05.554Z,12.90
2023-08-11T14:15:07.834Z,13.63
2023-08-11T14:25:11.510Z,14.79
2023-08-11T14:35:13.207Z,14.41
2023-08-11T14:45:14.933Z,14.06
2023-08-11T14:55:17.776Z,14.39
2023-08-11T15:05:19.443Z,12.03
2023-08-11T15:15:21.292Z,11.33
2023-08-11T15:25:23.075Z,14.67
2023-08-11T15:35:25.799Z,14.31
2023-08-11T15:45:27.982Z,11.85
2023-08-11T15:55:36.395Z,12.64
2023-08-11T16:05:40.771Z,14.11
2023-08-11T16:15:42.901Z,13.80
2023-08-11T16:25:45.685Z,15.19
2023-08-11T16:35:48.987Z,15.17
2023-08-11T16:45:51.133Z,15.72
2023-08-11T16:55:53.178Z,16.63
2023-08-11T17:05:54.843Z,18.61
2023-08-11T17:15:56.648Z,25.67
2023-08-11T17:25:58.335Z,29.30
2023-08-11T17:36:00.799Z,30.35
2023-08-11T17:46:05.264Z,32.22
2023-08-11T17:56:07.957Z,34.55
2023-08-11T18:06:10.157Z,36.38
2023-08-11T18:16:14.882Z,38.09
2023-08-11T18:26:19.860Z,39.23
2023-08-11T18:36:21.810Z,41.32
2023-08-11T18:46:24.253Z,43.25
2023-08-11T18:56:26.501Z,45.38
2023-08-11T19:06:29.617Z,47.12
2023-08-11T19:16:31.527Z,48.77
2023-08-11T19:26:34.233Z,50.77
2023-08-11T19:36:38.981Z,51.16
2023-08-11T19:46:52.150Z,52.07
2023-08-11T19:56:54.323Z,55.10
2023-08-11T20:06:57.819Z,58.87
2023-08-11T20:17:02.631Z,64.73
2023-08-11T20:27:04.357Z,63.74
2023-08-11T20:37:06.623Z,69.78
2023-08-11T20:47:08.892Z,73.73
2023-08-11T20:57:14.844Z,75.09
2023-08-11T21:07:16.550Z,79.84
2023-08-11T21:17:21.332Z,84.00
2023-08-11T21:27:23.153Z,91.63
2023-08-11T21:37:32.231Z,93.88
2023-08-11T21:47:35.927Z,97.71
2023-08-11T21:57:37.805Z,98.89
2023-08-11T22:07:39.611Z,100.00
2023-08-11T22:17:46.249Z,100.00
2023-08-11T22:27:49.388Z,100.00
2023-08-11T22:37:52.028Z,100.00
2023-08-11T22:47:53.740Z,100.00
2023-08-11T22:57:57.354Z,100.00
2023-08-11T23:08:00.879Z,100.00
2023-08-11T23:18:02.549Z,100.00
2023-08-11T23:28:04.503Z,100.00
2023-08-11T23:38:07.490Z,100.00
2023-08-11T23:48:09.398Z,100.00
2023-08-11T23:58:11.447Z,100.00
